createdAt,value
2023-08-07T00:02:20.953Z,57.21
2023-08-07T00:04:51.003Z,57.46
2023-08-07T00:07:19.704Z,56.33
2023-08-07T00:09:47.108Z,56.49
2023-08-07T00:12:14.845Z,57.33
2023-08-07T00:14:42.313Z,57.29
2023-08-07T00:17:09.806Z,57.44
2023-08-07T00:19:37.881Z,57.35
2023-08-07T00:22:05.630Z,57.09
2023-08-07T00:24:33.101Z,56.82
2023-08-07T00:27:00.783Z,56.97
2023-08-07T00:29:28.257Z,58.06
2023-08-07T00:31:55.679Z,57.44
2023-08-07T00:34:23.607Z,57.32
2023-08-07T00:36:51.216Z,57.73
2023-08-07T00:39:18.663Z,56.92
2023-08-07T00:41:46.333Z,57.60
2023-08-07T00:44:15.035Z,57.85
2023-08-07T00:46:43.238Z,57.00
2023-08-07T00:49:13.044Z,56.66
2023-08-07T00:51:40.800Z,57.23
2023-08-07T00:54:09.609Z,56.87
2023-08-07T00:56:38.034Z,56.72
2023-08-07T00:59:05.527Z,57.48
2023-08-07T01:01:32.996Z,57.65
2023-08-07T01:04:01.407Z,57.97
2023-08-07T01:06:28.878Z,58.22
2023-08-07T01:08:56.386Z,57.90
2023-08-07T01:11:47.131Z,58.30
2023-08-07T01:14:32.154Z,58.52
2023-08-07T01:17:07.535Z,57.31
2023-08-07T01:19:35.797Z,57.33
2023-08-07T01:22:09.825Z,58.32
2023-08-07T01:24:40.326Z,56.46
2023-08-07T01:27:20.093Z,57.41
2023-08-07T01:29:51.719Z,57.31
2023-08-07T01:32:48.620Z,56.16
2023-08-07T01:35:17.576Z,56.44
2023-08-07T01:37:46.645Z,56.49
2023-08-07T01:40:14.820Z,56.26
2023-08-07T01:42:42.472Z,57.32
2023-08-07T01:45:10.483Z,55.84
2023-08-07T01:47:38.128Z,55.97
2023-08-07T01:50:07.425Z,56.52
2023-08-07T01:52:35.156Z,56.54
2023-08-07T01:55:03.010Z,56.08
2023-08-07T01:57:31.608Z,57.04
2023-08-07T01:59:59.628Z,55.88
2023-08-07T02:02:27.147Z,57.38
2023-08-07T02:04:54.936Z,56.55
2023-08-07T02:07:22.355Z,56.72
2023-08-07T02:09:49.866Z,55.99
2023-08-07T02:12:17.573Z,55.57
2023-08-07T02:14:45.019Z,56.16
2023-08-07T02:17:12.479Z,55.90
2023-08-07T02:19:40.217Z,55.19
2023-08-07T02:22:07.852Z,55.20
2023-08-07T02:24:35.436Z,55.42
2023-08-07T02:27:03.244Z,55.42
2023-08-07T02:29:31.188Z,55.33
2023-08-07T02:31:58.663Z,54.30
2023-08-07T02:34:26.410Z,55.19
2023-08-07T02:36:53.964Z,55.30
2023-08-07T02:39:22.240Z,54.47
2023-08-07T02:41:50.007Z,55.16
2023-08-07T02:44:18.696Z,54.80
2023-08-07T02:46:46.099Z,54.50
2023-08-07T02:49:13.835Z,54.21
2023-08-07T02:51:41.344Z,54.53
2023-08-07T02:54:08.824Z,55.02
2023-08-07T02:56:36.671Z,54.07
2023-08-07T02:59:04.127Z,53.79
2023-08-07T03:01:31.584Z,54.25
2023-08-07T03:03:59.672Z,54.22
2023-08-07T03:06:27.171Z,54.38
2023-08-07T03:08:54.674Z,54.24
2023-08-07T03:11:22.398Z,54.52
2023-08-07T03:13:50.558Z,54.57
2023-08-07T03:16:18.091Z,53.96
2023-08-07T03:18:46.201Z,54.31
2023-08-07T03:21:13.738Z,54.32
2023-08-07T03:23:41.476Z,55.33
2023-08-07T03:26:18.752Z,54.26
2023-08-07T03:28:50.348Z,54.81
2023-08-07T03:31:18.465Z,55.43
2023-08-07T03:33:46.692Z,55.63
2023-08-07T03:36:15.229Z,55.27
2023-08-07T03:38:43.246Z,55.32
2023-08-07T03:41:11.460Z,55.88
2023-08-07T03:43:41.090Z,55.74
2023-08-07T03:46:08.841Z,55.73
2023-08-07T03:48:37.405Z,54.79
2023-08-07T03:51:11.801Z,54.15
2023-08-07T03:53:40.063Z,54.23
2023-08-07T03:56:07.508Z,54.67
2023-08-07T03:58:35.059Z,54.55
2023-08-07T04:01:03.236Z,55.61
2023-08-07T04:03:30.972Z,55.04
2023-08-07T04:05:58.485Z,55.60
2023-08-07T04:08:25.931Z,55.17
2023-08-07T04:11:05.758Z,54.29
2023-08-07T04:13:34.387Z,54.94
2023-08-07T04:16:05.018Z,54.70
2023-08-07T04:18:33.110Z,55.34
2023-08-07T04:21:02.338Z,54.50
2023-08-07T04:23:30.063Z,53.98
2023-08-07T04:25:57.716Z,54.16
2023-08-07T04:28:25.462Z,54.42
2023-08-07T04:30:53.316Z,53.84
2023-08-07T04:33:21.903Z,54.78
2023-08-07T04:35:49.759Z,54.17
2023-08-07T04:38:18.134Z,53.50
2023-08-07T04:40:52.061Z,53.31
2023-08-07T04:43:26.100Z,54.12
2023-08-07T04:45:54.226Z,53.75
2023-08-07T04:48:23.492Z,54.33
2023-08-07T04:50:51.032Z,53.63
2023-08-07T04:53:18.490Z,54.15
2023-08-07T04:55:47.492Z,54.55
2023-08-07T04:58:15.009Z,52.98
2023-08-07T05:00:42.773Z,53.08
2023-08-07T05:03:11.701Z,53.03
2023-08-07T05:05:39.427Z,52.39
2023-08-07T05:08:07.023Z,51.38
2023-08-07T05:10:34.814Z,52.46
2023-08-07T05:13:02.306Z,51.65
2023-08-07T05:15:31.722Z,52.49
2023-08-07T05:17:59.526Z,51.73
2023-08-07T05:20:27.029Z,51.92
2023-08-07T05:22:54.657Z,50.43
2023-08-07T05:25:22.808Z,50.95
2023-08-07T05:27:50.310Z,49.58
2023-08-07T05:30:17.752Z,50.56
2023-08-07T05:32:45.500Z,50.45
2023-08-07T05:35:13.134Z,50.33
2023-08-07T05:37:40.673Z,49.60
2023-08-07T05:40:08.783Z,49.66
2023-08-07T05:42:37.278Z,48.89
2023-08-07T05:45:05.200Z,50.09
2023-08-07T05:47:34.715Z,49.86
2023-08-07T05:50:02.465Z,49.52
2023-08-07T05:52:31.736Z,48.87
2023-08-07T05:54:59.436Z,49.63
2023-08-07T05:57:26.873Z,49.87
2023-08-07T05:59:54.470Z,48.19
2023-08-07T06:02:22.230Z,47.91
2023-08-07T06:04:50.122Z,48.78
2023-08-07T06:07:17.878Z,47.54
2023-08-07T06:09:45.413Z,49.09
2023-08-07T06:12:13.395Z,48.77
2023-08-07T06:14:40.871Z,49.06
2023-08-07T06:17:08.292Z,48.76
2023-08-07T06:19:35.988Z,47.44
2023-08-07T06:22:03.543Z,46.65
2023-08-07T06:24:31.022Z,48.54
2023-08-07T06:26:58.849Z,47.19
2023-08-07T06:29:26.325Z,47.61
2023-08-07T06:31:53.879Z,47.68
2023-08-07T06:34:21.693Z,47.37
2023-08-07T06:36:49.168Z,47.17
2023-08-07T06:39:16.670Z,46.78
2023-08-07T06:41:44.351Z,46.72
2023-08-07T06:44:12.854Z,47.64
2023-08-07T06:46:40.355Z,46.86
2023-08-07T06:49:08.100Z,47.39
2023-08-07T06:51:35.610Z,47.99
2023-08-07T06:54:03.073Z,47.76
2023-08-07T06:56:31.027Z,47.47
2023-08-07T06:58:58.421Z,47.19
2023-08-07T07:01:25.831Z,46.41
2023-08-07T07:03:54.178Z,47.50
2023-08-07T07:06:22.208Z,47.98
2023-08-07T07:08:49.820Z,47.40
2023-08-07T07:11:19.000Z,45.52
2023-08-07T07:13:48.328Z,47.22
2023-08-07T07:16:16.038Z,46.94
2023-08-07T07:18:43.880Z,46.60
2023-08-07T07:21:11.356Z,46.59
2023-08-07T07:23:38.834Z,47.21
2023-08-07T07:26:06.609Z,47.21
2023-08-07T07:28:34.087Z,48.00
2023-08-07T07:31:01.762Z,47.56
2023-08-07T07:33:29.511Z,47.38
2023-08-07T07:35:56.963Z,47.06
2023-08-07T07:38:24.419Z,46.65
2023-08-07T07:40:52.069Z,47.90
2023-08-07T07:43:19.634Z,45.41
2023-08-07T07:45:47.124Z,46.08
2023-08-07T07:48:14.880Z,45.36
2023-08-07T07:50:42.417Z,43.22
2023-08-07T07:53:09.813Z,44.15
2023-08-07T07:55:39.082Z,43.87
2023-08-07T07:58:07.317Z,43.58
2023-08-07T08:00:34.800Z,42.56
2023-08-07T08:03:02.592Z,42.00
2023-08-07T08:05:30.754Z,40.91
2023-08-07T08:07:58.152Z,41.24
2023-08-07T08:10:26.714Z,40.85
2023-08-07T08:12:57.681Z,40.93
2023-08-07T08:15:26.218Z,41.64
2023-08-07T08:17:53.946Z,41.21
2023-08-07T08:20:21.543Z,40.82
2023-08-07T08:22:49.018Z,41.04
2023-08-07T08:25:18.759Z,40.31
2023-08-07T08:27:46.994Z,40.35
2023-08-07T08:30:14.524Z,41.33
2023-08-07T08:32:43.630Z,40.75
2023-08-07T08:35:11.134Z,42.02
2023-08-07T08:37:38.803Z,40.35
2023-08-07T08:40:09.116Z,40.20
2023-08-07T08:42:39.705Z,39.90
2023-08-07T08:45:10.255Z,40.12
2023-08-07T08:47:38.303Z,41.06
2023-08-07T08:50:11.020Z,40.76
2023-08-07T08:52:41.759Z,42.05
2023-08-07T08:55:10.510Z,42.26
2023-08-07T08:57:39.541Z,42.37
2023-08-07T09:00:18.931Z,43.45
2023-08-07T09:02:47.249Z,43.31
2023-08-07T09:05:16.520Z,42.89
2023-08-07T09:07:44.815Z,42.46
2023-08-07T09:10:15.131Z,42.30
2023-08-07T09:13:01.112Z,40.53
2023-08-07T09:15:31.211Z,40.01
2023-08-07T09:18:00.234Z,39.33
2023-08-07T09:20:27.911Z,40.00
2023-08-07T09:22:55.534Z,39.67
2023-08-07T09:25:34.097Z,40.01
2023-08-07T09:28:06.610Z,40.67
2023-08-07T09:30:36.703Z,39.00
2023-08-07T09:33:05.114Z,39.07
2023-08-07T09:35:33.626Z,40.14
2023-08-07T09:38:02.270Z,40.25
2023-08-07T09:40:30.759Z,39.18
2023-08-07T09:43:00.545Z,39.41
2023-08-07T09:45:30.201Z,39.24
2023-08-07T09:48:05.334Z,39.92
2023-08-07T09:50:33.737Z,39.19
2023-08-07T09:53:01.353Z,39.63
2023-08-07T09:55:28.961Z,39.40
2023-08-07T09:57:56.805Z,40.60
2023-08-07T10:00:24.347Z,38.89
2023-08-07T10:02:52.763Z,38.97
2023-08-07T10:05:20.564Z,39.02
2023-08-07T10:07:48.610Z,39.87
2023-08-07T10:10:17.129Z,39.16
2023-08-07T10:12:47.393Z,38.16
2023-08-07T10:15:16.364Z,37.82
2023-08-07T10:17:44.845Z,38.05
2023-08-07T10:20:13.418Z,38.25
2023-08-07T10:22:41.952Z,38.41
2023-08-07T10:25:10.233Z,39.05
2023-08-07T10:27:40.106Z,38.47
2023-08-07T10:30:11.830Z,39.10
2023-08-07T10:32:39.911Z,39.37
2023-08-07T10:35:07.665Z,40.20
2023-08-07T10:37:42.832Z,40.55
2023-08-07T10:40:13.731Z,39.21
2023-08-07T10:43:00.578Z,40.09
2023-08-07T10:45:30.182Z,40.34
2023-08-07T10:48:06.073Z,40.26
2023-08-07T10:50:34.960Z,39.22
2023-08-07T10:53:03.782Z,40.13
2023-08-07T10:55:47.361Z,40.51
2023-08-07T10:58:25.051Z,40.80
2023-08-07T11:00:53.706Z,41.91
2023-08-07T11:03:28.034Z,41.79
2023-08-07T11:05:59.321Z,41.75
2023-08-07T11:08:28.421Z,42.41
2023-08-07T11:10:59.300Z,42.17
2023-08-07T11:13:30.655Z,40.59
2023-08-07T11:15:58.351Z,42.28
2023-08-07T11:18:27.758Z,41.03
2023-08-07T11:20:57.234Z,42.24
2023-08-07T11:23:25.920Z,40.97
2023-08-07T11:25:55.246Z,41.43
2023-08-07T11:28:24.050Z,42.25
2023-08-07T11:30:56.512Z,41.97
2023-08-07T11:33:28.117Z,42.92
2023-08-07T11:35:55.943Z,41.76
2023-08-07T11:38:44.273Z,43.23
2023-08-07T11:41:13.953Z,44.23
2023-08-07T11:43:42.704Z,42.97
2023-08-07T11:46:12.370Z,43.98
2023-08-07T11:48:41.205Z,45.93
2023-08-07T11:51:09.207Z,45.80
2023-08-07T11:53:37.553Z,45.22
2023-08-07T11:56:07.154Z,46.34
2023-08-07T11:58:36.938Z,45.69
2023-08-07T12:01:06.400Z,44.87
2023-08-07T12:03:39.878Z,45.74
2023-08-07T12:06:08.730Z,44.94
2023-08-07T12:08:38.992Z,43.25
2023-08-07T12:11:08.977Z,44.54
2023-08-07T12:13:40.959Z,44.52
2023-08-07T12:16:16.596Z,45.01
2023-08-07T12:18:50.549Z,43.38
2023-08-07T12:21:20.628Z,44.55
2023-08-07T12:23:49.126Z,43.45
2023-08-07T12:26:16.641Z,44.03
2023-08-07T12:28:44.370Z,44.53
2023-08-07T12:31:12.250Z,45.10
2023-08-07T12:33:39.722Z,45.29
2023-08-07T12:36:20.300Z,45.59
2023-08-07T12:38:48.657Z,46.38
2023-08-07T12:43:46.625Z,44.56
2023-08-07T12:48:44.736Z,44.96
2023-08-07T12:51:12.223Z,45.29
2023-08-07T12:53:39.948Z,45.93
2023-08-07T12:56:07.682Z,44.67
2023-08-07T12:58:35.299Z,45.11
2023-08-07T13:01:03.054Z,45.46
2023-08-07T13:03:30.831Z,44.32
2023-08-07T13:05:58.426Z,44.73
2023-08-07T13:08:26.087Z,44.74
2023-08-07T13:10:53.553Z,44.75
2023-08-07T13:13:20.992Z,44.79
2023-08-07T13:15:48.674Z,45.80
2023-08-07T13:18:17.903Z,44.78
2023-08-07T13:20:45.414Z,44.06
2023-08-07T13:23:13.170Z,44.92
2023-08-07T13:25:41.309Z,44.32
2023-08-07T13:28:08.738Z,45.84
2023-08-07T13:30:37.944Z,45.89
2023-08-07T13:33:05.710Z,46.11
2023-08-07T13:35:35.774Z,47.88
2023-08-07T13:38:06.486Z,47.83
2023-08-07T13:40:34.633Z,48.17
2023-08-07T13:43:08.793Z,48.12
2023-08-07T13:45:37.945Z,46.89
2023-08-07T13:48:07.894Z,46.51
2023-08-07T13:50:35.846Z,47.18
2023-08-07T13:53:13.723Z,47.46
2023-08-07T13:55:44.713Z,48.83
2023-08-07T13:58:16.678Z,47.47
2023-08-07T14:00:45.351Z,47.56
2023-08-07T14:03:14.822Z,47.82
2023-08-07T14:05:43.268Z,48.33
2023-08-07T14:08:12.160Z,48.99
2023-08-07T14:10:42.855Z,48.96
2023-08-07T14:13:11.924Z,48.98
2023-08-07T14:15:41.325Z,49.20
2023-08-07T14:18:08.897Z,49.88
2023-08-07T14:20:44.620Z,49.29
2023-08-07T14:23:24.184Z,49.88
2023-08-07T14:25:52.017Z,48.67
2023-08-07T14:28:20.157Z,49.58
2023-08-07T14:30:52.439Z,49.81
2023-08-07T14:33:25.444Z,50.72
2023-08-07T14:35:55.439Z,49.74
2023-08-07T14:38:25.502Z,50.69
2023-08-07T14:40:56.705Z,51.61
2023-08-07T14:43:26.169Z,52.27
2023-08-07T14:45:56.198Z,52.67
2023-08-07T14:48:24.396Z,52.50
2023-08-07T14:50:53.292Z,52.15
2023-08-07T14:53:20.823Z,52.83
2023-08-07T14:55:48.786Z,52.44
2023-08-07T14:58:16.294Z,52.25
2023-08-07T15:00:43.771Z,53.36
2023-08-07T15:03:11.542Z,53.31
2023-08-07T15:05:39.107Z,54.12
2023-08-07T15:08:06.519Z,54.01
2023-08-07T15:10:35.113Z,53.04
2023-08-07T15:13:02.672Z,54.01
2023-08-07T15:15:30.147Z,54.66
2023-08-07T15:17:58.001Z,54.55
2023-08-07T15:20:26.623Z,54.12
2023-08-07T15:22:54.119Z,54.97
2023-08-07T15:25:21.904Z,55.55
2023-08-07T15:27:49.465Z,54.90
2023-08-07T15:30:17.102Z,54.99
2023-08-07T15:32:45.271Z,54.83
2023-08-07T15:35:13.028Z,56.11
2023-08-07T15:37:40.825Z,55.90
2023-08-07T15:40:09.956Z,55.32
2023-08-07T15:42:37.505Z,55.69
2023-08-07T15:45:06.226Z,55.03
2023-08-07T15:47:34.718Z,55.32
2023-08-07T15:50:03.235Z,55.22
2023-08-07T15:52:31.272Z,54.09
2023-08-07T15:54:59.370Z,55.20
2023-08-07T15:57:27.093Z,56.03
2023-08-07T15:59:54.529Z,56.23
2023-08-07T16:02:22.519Z,57.08
2023-08-07T16:04:50.509Z,56.13
2023-08-07T16:07:18.210Z,55.86
2023-08-07T16:09:45.776Z,55.90
2023-08-07T16:12:14.108Z,56.65
2023-08-07T16:14:41.988Z,56.84
2023-08-07T16:17:10.918Z,57.29
2023-08-07T16:19:39.376Z,57.16
2023-08-07T16:22:06.997Z,57.58
2023-08-07T16:24:34.955Z,57.33
2023-08-07T16:27:03.163Z,56.61
2023-08-07T16:29:31.005Z,56.73
2023-08-07T16:31:59.960Z,57.09
2023-08-07T16:34:28.357Z,56.73
2023-08-07T16:36:56.348Z,57.70
2023-08-07T16:39:24.664Z,58.01
2023-08-07T16:41:53.501Z,56.49
2023-08-07T16:44:21.719Z,55.69
2023-08-07T16:46:49.693Z,55.79
2023-08-07T16:49:18.039Z,56.32
2023-08-07T16:51:46.298Z,56.10
2023-08-07T16:54:14.391Z,55.46
2023-08-07T16:56:42.101Z,55.72
2023-08-07T16:59:11.274Z,55.21
2023-08-07T17:01:39.458Z,55.37
2023-08-07T17:04:08.441Z,55.76
2023-08-07T17:06:37.020Z,54.98
2023-08-07T17:09:04.928Z,54.45
2023-08-07T17:11:33.159Z,54.78
2023-08-07T17:14:01.579Z,54.46
2023-08-07T17:16:29.380Z,54.49
2023-08-07T17:18:57.943Z,54.76
2023-08-07T17:21:26.156Z,55.16
2023-08-07T17:23:54.150Z,55.08
2023-08-07T17:26:24.443Z,54.64
2023-08-07T17:28:58.153Z,54.70
2023-08-07T17:31:27.679Z,53.68
2023-08-07T17:33:55.265Z,54.67
2023-08-07T17:36:23.602Z,54.67
2023-08-07T17:38:52.565Z,54.85
2023-08-07T17:41:21.921Z,55.08
2023-08-07T17:43:50.533Z,54.03
2023-08-07T17:46:18.863Z,54.29
2023-08-07T17:48:46.900Z,54.02
2023-08-07T17:51:14.969Z,54.24
2023-08-07T17:53:44.695Z,54.60
2023-08-07T17:56:12.980Z,55.53
2023-08-07T17:58:40.813Z,56.09
2023-08-07T18:01:08.646Z,55.60
2023-08-07T18:03:37.151Z,54.92
2023-08-07T18:06:05.107Z,55.28
2023-08-07T18:08:35.343Z,54.83
2023-08-07T18:11:04.544Z,54.40
2023-08-07T18:13:33.173Z,55.14
2023-08-07T18:16:02.923Z,54.98
2023-08-07T18:18:31.724Z,55.98
2023-08-07T18:20:59.462Z,54.68
2023-08-07T18:23:28.096Z,55.26
2023-08-07T18:25:56.420Z,55.88
2023-08-07T18:28:24.378Z,56.15
2023-08-07T18:30:52.819Z,55.53
2023-08-07T18:33:23.297Z,58.17
2023-08-07T18:35:54.879Z,55.78
2023-08-07T18:38:23.724Z,55.39
2023-08-07T18:40:51.628Z,56.33
2023-08-07T18:43:22.271Z,55.16
2023-08-07T18:45:51.275Z,54.96
2023-08-07T18:48:19.053Z,54.84
2023-08-07T18:50:47.237Z,54.39
2023-08-07T18:53:15.439Z,53.99
2023-08-07T18:55:43.549Z,54.19
2023-08-07T18:58:12.664Z,54.00
2023-08-07T19:00:41.572Z,55.34
2023-08-07T19:03:11.582Z,53.54
2023-08-07T19:05:40.638Z,54.02
2023-08-07T19:08:09.281Z,55.51
2023-08-07T19:10:39.701Z,57.22
2023-08-07T19:13:10.310Z,55.91
2023-08-07T19:15:39.992Z,54.69
2023-08-07T19:18:09.157Z,55.71
2023-08-07T19:20:37.252Z,55.56
2023-08-07T19:23:05.556Z,56.04
2023-08-07T19:25:33.288Z,55.32
2023-08-07T19:28:01.298Z,55.19
2023-08-07T19:30:31.990Z,56.00
2023-08-07T19:33:00.646Z,55.35
2023-08-07T19:35:29.059Z,54.52
2023-08-07T19:37:56.709Z,55.81
2023-08-07T19:40:28.610Z,55.82
2023-08-07T19:42:56.719Z,56.18
2023-08-07T19:45:27.129Z,55.02
2023-08-07T19:47:56.468Z,55.66
2023-08-07T19:50:26.016Z,55.09
2023-08-07T19:52:55.913Z,55.52
2023-08-07T19:55:24.269Z,55.61
2023-08-07T19:57:52.685Z,55.54
2023-08-07T20:00:21.733Z,56.13
2023-08-07T20:02:51.061Z,55.20
2023-08-07T20:05:19.554Z,56.15
2023-08-07T20:07:47.455Z,56.37
2023-08-07T20:10:22.387Z,56.52
2023-08-07T20:12:53.406Z,57.05
2023-08-07T20:15:22.157Z,56.31
2023-08-07T20:17:50.848Z,56.26
2023-08-07T20:20:21.529Z,56.48
2023-08-07T20:22:50.305Z,57.61
2023-08-07T20:25:18.049Z,56.90
2023-08-07T20:27:46.371Z,56.84
2023-08-07T20:30:14.825Z,57.53
2023-08-07T20:32:43.110Z,57.74
2023-08-07T20:35:11.485Z,57.41
2023-08-07T20:37:39.976Z,57.54
2023-08-07T20:40:09.123Z,57.87
2023-08-07T20:42:36.915Z,58.17
2023-08-07T20:45:06.026Z,57.87
2023-08-07T20:47:34.028Z,57.37
2023-08-07T20:50:02.472Z,58.28
2023-08-07T20:52:30.956Z,58.58
2023-08-07T20:54:59.163Z,59.05
2023-08-07T20:57:26.985Z,57.52
2023-08-07T20:59:54.889Z,58.32
2023-08-07T21:02:22.407Z,58.03
2023-08-07T21:04:49.882Z,57.47
2023-08-07T21:07:18.320Z,58.66
2023-08-07T21:09:46.024Z,58.72
2023-08-07T21:12:13.515Z,58.07
2023-08-07T21:14:41.278Z,56.73
2023-08-07T21:17:08.761Z,56.84
2023-08-07T21:19:36.830Z,57.45
2023-08-07T21:22:04.752Z,56.88
2023-08-07T21:24:32.169Z,57.20
2023-08-07T21:26:59.681Z,57.36
2023-08-07T21:29:27.361Z,57.40
2023-08-07T21:31:54.788Z,56.90
2023-08-07T21:34:22.353Z,57.69
2023-08-07T21:36:50.033Z,58.14
2023-08-07T21:39:17.444Z,57.88
2023-08-07T21:41:44.866Z,57.55
2023-08-07T21:44:13.355Z,57.75
2023-08-07T21:46:40.869Z,58.23
2023-08-07T21:49:08.299Z,58.89
2023-08-07T21:51:35.938Z,58.63
2023-08-07T21:54:03.322Z,58.66
2023-08-07T21:56:30.733Z,60.18
2023-08-07T21:58:58.453Z,59.78
2023-08-07T22:01:26.884Z,60.70
2023-08-07T22:03:55.050Z,60.89
2023-08-07T22:06:22.544Z,60.28
2023-08-07T22:08:49.952Z,61.24
2023-08-07T22:11:17.737Z,62.07
2023-08-07T22:13:46.250Z,61.71
2023-08-07T22:16:13.843Z,60.96
2023-08-07T22:18:42.058Z,61.58
2023-08-07T22:21:09.512Z,60.97
2023-08-07T22:23:36.966Z,60.18
2023-08-07T22:26:04.717Z,60.29
2023-08-07T22:28:32.194Z,59.07
2023-08-07T22:30:59.539Z,59.78
2023-08-07T22:33:27.396Z,59.33
2023-08-07T22:35:54.877Z,59.47
2023-08-07T22:38:22.299Z,58.88
2023-08-07T22:40:50.184Z,59.30
2023-08-07T22:43:17.661Z,59.48
2023-08-07T22:45:50.439Z,60.28
2023-08-07T22:48:18.381Z,60.21
2023-08-07T22:50:45.833Z,60.17
2023-08-07T22:53:13.333Z,60.66
2023-08-07T22:55:41.708Z,60.29
2023-08-07T22:58:09.570Z,60.13
2023-08-07T23:00:37.532Z,59.52
2023-08-07T23:03:05.847Z,59.25
2023-08-07T23:05:33.689Z,59.35
2023-08-07T23:08:01.391Z,59.78
2023-08-07T23:10:30.043Z,60.14
2023-08-07T23:12:57.620Z,60.26
2023-08-07T23:15:25.045Z,60.65
2023-08-07T23:17:52.949Z,59.64
2023-08-07T23:20:20.459Z,60.05
2023-08-07T23:22:47.880Z,60.17
2023-08-07T23:25:16.312Z,60.29
2023-08-07T23:27:44.296Z,60.07
2023-08-07T23:30:11.972Z,59.43
2023-08-07T23:32:41.402Z,58.04
2023-08-07T23:35:09.106Z,58.54
2023-08-07T23:37:36.549Z,59.13
2023-08-07T23:40:05.233Z,58.83
2023-08-07T23:42:32.676Z,58.78
2023-08-07T23:45:00.383Z,58.87
2023-08-07T23:47:28.056Z,58.17
2023-08-07T23:49:55.497Z,58.67
2023-08-07T23:52:22.908Z,58.28
2023-08-07T23:54:50.635Z,59.42
2023-08-07T23:57:18.054Z,59.43
2023-08-07T23:59:45.982Z,58.47
